Time;durP1;ratioP1;P1;durP2;ratioP2;P2;SDS_P1;SDS_P2;PMS_P1;PMS_P2;Temp;Humidity;BMP_temperature;BMP_pressure;BME280_temperature;BME280_humidity;BME280_pressure;Samples;Min_cycle;Max_cycle;Signal;HPM_P1;HPM_P2
2022/10/07 00:01:00;;;;;;;;;;;;;;;11.79;100.00;102613.91;5051742;28;19929;-68
2022/10/07 00:03:26;;;;;;;;;;;;;;;11.78;100.00;102603.28;5050797;28;19912;-69
2022/10/07 00:05:58;;;;;;;;;;;;;;;11.75;100.00;102606.69;5051899;28;19916;-68
2022/10/07 00:08:23;;;;;;;;;;;;;;;11.75;100.00;102606.69;5052254;28;19921;-67
2022/10/07 00:10:49;;;;;;;;;;;;;;;11.70;100.00;102602.97;5051983;28;19916;-68
2022/10/07 00:13:14;;;;;;;;;;;;;;;11.70;100.00;102605.59;5052104;28;19928;-68
2022/10/07 00:15:39;;;;;;;;;;;;;;;11.68;100.00;102604.66;5051755;28;19917;-68
2022/10/07 00:18:05;;;;;;;;;;;;;;;11.64;100.00;102602.75;5051735;28;19917;-67
2022/10/07 00:20:35;;;;;;;;;;;;;;;11.67;100.00;102602.84;5052395;28;20357;-68
2022/10/07 00:23:00;;;;;;;;;;;;;;;11.67;100.00;102602.84;5051563;28;19917;-66
2022/10/07 00:25:25;;;;;;;;;;;;;;;11.68;100.00;102603.75;5048382;28;19939;-69
2022/10/07 00:27:50;;;;;;;;;;;;;;;11.66;100.00;102594.88;5050929;28;19920;-67
2022/10/07 00:30:16;;;;;;;;;;;;;;;11.66;100.00;102598.41;5052124;28;20452;-68
2022/10/07 00:32:42;;;;;;;;;;;;;;;11.62;100.00;102584.22;5051934;28;19917;-68
2022/10/07 00:35:07;;;;;;;;;;;;;;;11.61;100.00;102586.78;5051179;28;19916;-68
2022/10/07 00:37:33;;;;;;;;;;;;;;;11.58;100.00;102581.38;5051416;28;19963;-67
2022/10/07 00:39:58;;;;;;;;;;;;;;;11.56;100.00;102578.69;5052875;28;20283;-67
2022/10/07 00:42:23;;;;;;;;;;;;;;;11.58;100.00;102581.38;5034073;28;20023;-67
2022/10/07 00:44:48;;;;;;;;;;;;;;;11.55;100.00;102584.78;5051527;28;20019;-68
2022/10/07 00:47:24;;;;;;;;;;;;;;;11.54;100.00;102582.97;5051193;28;19917;-68
2022/10/07 00:49:55;;;;;;;;;;;;;;;11.54;100.00;102582.09;5049517;28;19949;-68
2022/10/07 00:52:22;;;;;;;;;;;;;;;11.55;100.00;102576.00;5051281;28;19921;-68
2022/10/07 00:54:51;;;;;;;;;;;;;;;11.52;100.00;102575.88;5051749;28;20439;-67
2022/10/07 00:57:17;;;;;;;;;;;;;;;11.51;100.00;102577.59;5038049;28;20284;-68
2022/10/07 00:59:42;;;;;;;;;;;;;;;11.45;100.00;102572.97;5055219;28;19920;-67
2022/10/07 01:02:08;;;;;;;;;;;;;;;11.43;100.00;102572.00;5054762;28;19917;-67
2022/10/07 01:04:33;;;;;;;;;;;;;;;11.35;100.00;102569.91;5055128;28;19928;-68
2022/10/07 01:06:58;;;;;;;;;;;;;;;11.36;100.00;102563.81;5055441;28;19917;-68
2022/10/07 01:09:23;;;;;;;;;;;;;;;11.35;100.00;102557.63;5055567;28;20012;-68
2022/10/07 01:11:51;;;;;;;;;;;;;;;11.35;100.00;102554.97;5055202;28;19956;-67
2022/10/07 01:14:37;;;;;;;;;;;;;;;11.33;100.00;102558.38;5037395;28;19940;-68
2022/10/07 01:17:20;;;;;;;;;;;;;;;11.28;100.00;102547.66;5052924;28;19921;-67
2022/10/07 01:20:04;;;;;;;;;;;;;;;11.28;100.00;102545.91;5054153;28;19921;-68
2022/10/07 01:22:38;;;;;;;;;;;;;;;11.25;100.00;102535.25;5054703;28;19921;-67
2022/10/07 01:25:13;;;;;;;;;;;;;;;11.32;100.00;102530.25;5037281;28;19924;-68
2022/10/07 01:27:42;;;;;;;;;;;;;;;11.31;100.00;102534.59;5055009;28;19917;-68
2022/10/07 01:30:08;;;;;;;;;;;;;;;11.30;100.00;102527.56;5055041;28;20352;-68
2022/10/07 01:32:35;;;;;;;;;;;;;;;11.32;100.00;102531.16;5054546;28;20012;-68
2022/10/07 01:35:01;;;;;;;;;;;;;;;11.33;100.00;102521.50;5053488;28;19970;-68
2022/10/07 01:37:33;;;;;;;;;;;;;;;11.35;100.00;102518.09;5054961;28;19920;-66
2022/10/07 01:40:02;;;;;;;;;;;;;;;11.36;100.00;102511.09;5054986;28;19917;-67
2022/10/07 01:42:28;;;;;;;;;;;;;;;11.36;100.00;102511.09;5054677;28;19924;-68
2022/10/07 01:44:55;;;;;;;;;;;;;;;11.37;100.00;102495.34;5054918;28;19916;-66
2022/10/07 01:47:20;;;;;;;;;;;;;;;11.38;100.00;102490.94;5055348;28;19917;-68
2022/10/07 01:49:46;;;;;;;;;;;;;;;11.31;100.00;102492.44;5054469;28;20288;-68
2022/10/07 01:52:17;;;;;;;;;;;;;;;11.30;100.00;102486.28;5050937;28;19924;-68
2022/10/07 01:54:52;;;;;;;;;;;;;;;11.32;100.00;102480.19;5053028;28;19916;-68
2022/10/07 01:57:20;;;;;;;;;;;;;;;11.31;100.00;102476.63;5054127;28;19936;-68
2022/10/07 02:00:04;;;;;;;;;;;;;;;11.27;100.00;102474.72;5054071;28;20280;-68
2022/10/07 02:02:29;;;;;;;;;;;;;;;11.26;100.00;102470.31;5052881;28;19925;-67
2022/10/07 02:05:15;;;;;;;;;;;;;;;11.21;100.00;102461.31;5054696;28;20391;-68
2022/10/07 02:07:40;;;;;;;;;;;;;;;11.21;100.00;102453.41;5052208;28;19928;-68
2022/10/07 02:10:10;;;;;;;;;;;;;;;11.20;100.00;102455.13;5054468;28;19921;-68
2022/10/07 02:13:04;;;;;;;;;;;;;;;11.19;100.00;102449.78;5053451;28;19916;-69
2022/10/07 02:15:33;;;;;;;;;;;;;;;11.17;100.00;102441.84;5039929;28;20055;-67
2022/10/07 02:18:01;;;;;;;;;;;;;;;11.19;100.00;102441.88;5052558;28;20377;-68
2022/10/07 02:20:28;;;;;;;;;;;;;;;11.18;100.00;102443.63;5051534;28;19917;-68
2022/10/07 02:22:57;;;;;;;;;;;;;;;11.21;100.00;102437.59;5052372;28;19916;-69
2022/10/07 02:25:24;;;;;;;;;;;;;;;11.22;100.00;102428.84;5054235;28;20281;-68
2022/10/07 02:27:52;;;;;;;;;;;;;;;11.19;100.00;102428.72;5052192;28;19917;-68
2022/10/07 02:30:18;;;;;;;;;;;;;;;11.18;100.00;102430.47;5052927;28;19924;-67
2022/10/07 02:32:46;;;;;;;;;;;;;;;11.24;100.00;102427.16;5052596;28;20288;-67
2022/10/07 02:35:16;;;;;;;;;;;;;;;11.22;100.00;102421.84;5053461;28;19947;-68
2022/10/07 02:37:43;;;;;;;;;;;;;;;11.25;100.00;102418.44;5053024;28;19913;-66
2022/10/07 02:40:08;;;;;;;;;;;;;;;11.27;100.00;102414.09;5052900;28;19978;-68
2022/10/07 02:42:40;;;;;;;;;;;;;;;11.25;100.00;102407.88;5035216;28;19920;-69
2022/10/07 02:45:12;;;;;;;;;;;;;;;11.23;100.00;102409.56;5053430;28;19940;-67
2022/10/07 02:47:40;;;;;;;;;;;;;;;11.25;100.00;102402.63;5053241;28;19917;-68
2022/10/07 02:50:09;;;;;;;;;;;;;;;11.22;100.00;102402.50;5034028;28;19963;-69
2022/10/07 02:52:35;;;;;;;;;;;;;;;11.24;100.00;102406.97;5033738;28;20402;-68
2022/10/07 02:55:03;;;;;;;;;;;;;;;11.26;100.00;102399.16;5053848;28;19917;-68
2022/10/07 02:57:30;;;;;;;;;;;;;;;11.25;100.00;102392.06;5052962;28;19913;-68
2022/10/07 02:59:57;;;;;;;;;;;;;;;11.22;100.00;102391.97;5051746;28;20277;-68
2022/10/07 03:02:25;;;;;;;;;;;;;;;11.18;100.00;102385.66;5051914;28;20311;-68
2022/10/07 03:04:50;;;;;;;;;;;;;;;11.17;100.00;102382.97;5052566;28;19917;-68
2022/10/07 03:07:16;;;;;;;;;;;;;;;11.14;100.00;102384.63;5052675;28;20284;-68
2022/10/07 03:09:42;;;;;;;;;;;;;;;11.14;100.00;102382.00;5053090;28;19920;-68
2022/10/07 03:12:07;;;;;;;;;;;;;;;11.13;100.00;102385.47;5052737;28;20414;-68
2022/10/07 03:14:34;;;;;;;;;;;;;;;11.17;100.00;102393.53;5052505;28;19925;-68
2022/10/07 03:16:59;;;;;;;;;;;;;;;11.16;100.00;102383.81;5050542;28;19921;-67
2022/10/07 03:19:25;;;;;;;;;;;;;;;11.13;100.00;102376.69;5052814;28;19916;-68
2022/10/07 03:21:50;;;;;;;;;;;;;;;11.13;100.00;102377.56;5052133;28;20008;-68
2022/10/07 03:24:15;;;;;;;;;;;;;;;11.09;100.00;102375.66;5052355;28;20380;-68
2022/10/07 03:26:41;;;;;;;;;;;;;;;11.10;100.00;102369.56;5052407;28;19923;-67
2022/10/07 03:29:07;;;;;;;;;;;;;;;11.08;100.00;102371.25;5052405;28;19920;-68
2022/10/07 03:31:32;;;;;;;;;;;;;;;11.08;100.00;102365.97;5049197;28;20007;-68
2022/10/07 03:33:58;;;;;;;;;;;;;;;11.08;100.00;102363.34;5050368;28;20362;-68
2022/10/07 03:36:23;;;;;;;;;;;;;;;11.05;100.00;102365.84;5052792;28;19921;-68
2022/10/07 03:38:49;;;;;;;;;;;;;;;11.07;100.00;102358.91;5051785;28;19917;-68
2022/10/07 03:41:15;;;;;;;;;;;;;;;11.11;100.00;102367.84;5034259;28;19939;-69
2022/10/07 03:43:40;;;;;;;;;;;;;;;11.11;100.00;102368.72;5050764;28;20276;-68
2022/10/07 03:46:05;;;;;;;;;;;;;;;11.07;100.00;102360.63;5052676;28;19921;-69
2022/10/07 03:48:30;;;;;;;;;;;;;;;11.04;100.00;102364.06;5052621;28;19946;-68
2022/10/07 03:50:56;;;;;;;;;;;;;;;11.07;100.00;102358.91;5050582;28;19917;-66
2022/10/07 03:53:22;;;;;;;;;;;;;;;11.04;100.00;102355.25;5034460;28;19948;-68
2022/10/07 03:55:47;;;;;;;;;;;;;;;11.06;100.00;102348.31;5051490;28;20376;-70
2022/10/07 03:58:12;;;;;;;;;;;;;;;11.03;100.00;102353.44;5051371;28;19917;-68
2022/10/07 04:00:39;;;;;;;;;;;;;;;11.08;100.00;102346.63;5051594;28;19947;-68
2022/10/07 04:03:06;;;;;;;;;;;;;;;11.05;100.00;102342.13;5052097;28;20357;-68
2022/10/07 04:05:32;;;;;;;;;;;;;;;10.99;100.00;102347.19;5052346;28;19925;-68
2022/10/07 04:07:57;;;;;;;;;;;;;;;11.01;100.00;102350.75;5051836;28;20004;-68
2022/10/07 04:10:23;;;;;;;;;;;;;;;11.02;100.00;102352.56;5051901;28;20398;-68
2022/10/07 04:12:50;;;;;;;;;;;;;;;11.03;100.00;102343.81;5051745;28;19924;-68
2022/10/07 04:15:15;;;;;;;;;;;;;;;11.00;100.00;102327.00;5052447;28;19917;-68
2022/10/07 04:17:41;;;;;;;;;;;;;;;10.98;100.00;102329.56;5052139;28;19963;-68
2022/10/07 04:20:07;;;;;;;;;;;;;;;10.95;100.00;102337.34;5052520;28;19917;-67
2022/10/07 04:22:32;;;;;;;;;;;;;;;10.99;100.00;102333.09;5050067;28;19917;-67
2022/10/07 04:27:41;;;;;;;;;;;;;;;10.91;100.00;102332.81;5051451;28;19959;-68
2022/10/07 04:30:07;;;;;;;;;;;;;;;10.92;100.00;102339.84;5048318;28;19921;-68
2022/10/07 04:32:33;;;;;;;;;;;;;;;10.92;100.00;102334.59;5050664;28;20265;-68
2022/10/07 04:34:59;;;;;;;;;;;;;;;11.00;100.00;102337.53;5049876;28;19924;-68
2022/10/07 04:37:25;;;;;;;;;;;;;;;10.97;100.00;102335.66;5053250;28;19924;-68
2022/10/07 04:39:50;;;;;;;;;;;;;;;10.94;100.00;102335.56;5054876;28;20280;-68
2022/10/07 04:44:59;;;;;;;;;;;;;;;10.93;100.00;102328.47;5056588;28;20315;-66
2022/10/07 04:47:24;;;;;;;;;;;;;;;10.90;100.00;102325.75;5055304;28;19920;-66
2022/10/07 04:49:52;;;;;;;;;;;;;;;10.86;100.00;102321.19;5055682;28;19920;-68
2022/10/07 04:52:17;;;;;;;;;;;;;;;10.83;100.00;102321.09;5053816;28;20019;-68
2022/10/07 04:54:43;;;;;;;;;;;;;;;10.83;100.00;102323.72;5054850;28;20403;-68
2022/10/07 04:57:11;;;;;;;;;;;;;;;10.79;100.00;102315.66;5055096;28;19948;-68
2022/10/07 04:59:36;;;;;;;;;;;;;;;10.82;100.00;102316.66;5055692;28;19994;-68
2022/10/07 05:02:01;;;;;;;;;;;;;;;10.84;100.00;102304.41;5035661;28;20375;-69
2022/10/07 05:04:26;;;;;;;;;;;;;;;10.82;100.00;102295.59;5055206;28;19952;-69
2022/10/07 05:06:52;;;;;;;;;;;;;;;10.83;100.00;102298.28;5054754;28;20002;-67
2022/10/07 05:09:17;;;;;;;;;;;;;;;10.80;100.00;102301.69;5054876;28;20066;-68
2022/10/07 05:11:42;;;;;;;;;;;;;;;10.77;100.00;102298.94;5054376;28;19943;-68
2022/10/07 05:14:07;;;;;;;;;;;;;;;10.77;100.00;102304.19;5058737;28;20287;-68
2022/10/07 05:16:33;;;;;;;;;;;;;;;10.79;100.00;102299.88;5053566;28;20378;-68
2022/10/07 05:18:58;;;;;;;;;;;;;;;10.78;100.00;102300.75;5039507;28;20024;-68
2022/10/07 05:21:23;;;;;;;;;;;;;;;10.76;100.00;102299.75;5048292;28;20047;-66
2022/10/07 05:23:49;;;;;;;;;;;;;;;10.80;100.00;102290.25;5051813;28;19924;-67
2022/10/07 05:26:14;;;;;;;;;;;;;;;10.78;100.00;102300.75;5052074;28;19974;-67
2022/10/07 05:28:40;;;;;;;;;;;;;;;10.78;100.00;102294.56;5057729;28;19927;-67
2022/10/07 05:31:10;;;;;;;;;;;;;;;10.79;100.00;102291.97;5057027;28;19917;-68
2022/10/07 05:33:35;;;;;;;;;;;;;;;10.76;100.00;102281.31;5053224;28;19917;-68
2022/10/07 05:36:01;;;;;;;;;;;;;;;10.80;100.00;102283.25;5049088;28;20300;-66
2022/10/07 05:38:27;;;;;;;;;;;;;;;10.77;100.00;102283.13;5054241;28;19974;-67
2022/10/07 05:41:00;;;;;;;;;;;;;;;10.80;100.00;102288.50;5053648;28;20011;-71
2022/10/07 05:43:29;;;;;;;;;;;;;;;10.79;100.00;102286.72;5050804;28;19975;-66
2022/10/07 05:45:59;;;;;;;;;;;;;;;10.79;100.00;102281.44;5057006;28;19927;-65
2022/10/07 05:48:26;;;;;;;;;;;;;;;10.79;100.00;102283.19;5059396;28;20332;-67
2022/10/07 05:50:51;;;;;;;;;;;;;;;10.80;100.00;102282.34;5054544;28;19925;-68
2022/10/07 05:53:16;;;;;;;;;;;;;;;10.80;100.00;102277.97;5055324;28;19916;-68
2022/10/07 05:55:41;;;;;;;;;;;;;;;10.85;100.00;102274.63;5056799;28;19923;-67
2022/10/07 05:58:07;;;;;;;;;;;;;;;10.86;100.00;102276.44;5056774;28;19916;-67
2022/10/07 06:00:34;;;;;;;;;;;;;;;10.89;100.00;102266.91;5051606;28;19967;-67
2022/10/07 06:03:01;;;;;;;;;;;;;;;10.89;100.00;102271.25;5055064;28;19920;-68
2022/10/07 06:05:30;;;;;;;;;;;;;;;10.89;100.00;102268.63;5062271;28;19916;-67
2022/10/07 06:07:55;;;;;;;;;;;;;;;10.86;100.00;102265.91;5061121;28;20376;-68
2022/10/07 06:13:07;;;;;;;;;;;;;;;10.93;100.00;102262.66;5062601;28;20089;-67
2022/10/07 06:15:33;;;;;;;;;;;;;;;10.91;100.00;102265.22;5036830;28;19917;-67
2022/10/07 06:17:58;;;;;;;;;;;;;;;10.93;100.00;102267.91;5040622;28;19931;-68
2022/10/07 06:20:23;;;;;;;;;;;;;;;10.98;100.00;102271.63;5059343;28;19991;-67
2022/10/07 06:22:51;;;;;;;;;;;;;;;11.00;100.00;102269.03;5060147;28;19940;-69
2022/10/07 06:25:16;;;;;;;;;;;;;;;11.00;100.00;102275.22;5051146;28;19917;-66
2022/10/07 06:27:41;;;;;;;;;;;;;;;11.03;100.00;102280.59;5052702;28;19927;-66
2022/10/07 06:30:07;;;;;;;;;;;;;;;11.04;100.00;102266.59;5049863;28;19925;-66
2022/10/07 06:32:32;;;;;;;;;;;;;;;11.11;100.00;102263.34;5050082;28;19950;-67
2022/10/07 06:34:57;;;;;;;;;;;;;;;11.13;100.00;102264.28;5050935;28;19921;-67
2022/10/07 06:37:22;;;;;;;;;;;;;;;11.19;100.00;102260.09;5051359;28;19970;-67
2022/10/07 06:39:48;;;;;;;;;;;;;;;11.18;100.00;102267.09;5052963;28;20004;-68
2022/10/07 06:42:13;;;;;;;;;;;;;;;11.20;100.00;102267.16;5048561;28;19970;-67
2022/10/07 06:44:38;;;;;;;;;;;;;;;11.26;100.00;102270.03;5050070;28;19923;-67
2022/10/07 06:47:04;;;;;;;;;;;;;;;11.30;100.00;102270.19;5053279;28;19920;-67
2022/10/07 06:49:30;;;;;;;;;;;;;;;11.33;100.00;102274.69;5052259;28;19921;-68
2022/10/07 06:51:55;;;;;;;;;;;;;;;11.39;100.00;102269.59;5055404;28;20384;-67
2022/10/07 06:54:21;;;;;;;;;;;;;;;11.44;100.00;102273.31;5051002;28;19925;-67
2022/10/07 06:56:46;;;;;;;;;;;;;;;11.46;100.00;102263.75;5053581;28;19917;-67
2022/10/07 06:59:11;;;;;;;;;;;;;;;11.50;100.00;102269.13;5051641;28;19924;-67
2022/10/07 07:01:36;;;;;;;;;;;;;;;11.51;100.00;102268.28;5052807;28;20126;-67
2022/10/07 07:04:02;;;;;;;;;;;;;;;11.52;100.00;102272.72;5048397;28;19923;-67
2022/10/07 07:06:28;;;;;;;;;;;;;;;11.54;100.00;102273.66;5052540;28;20561;-66
2022/10/07 07:08:59;;;;;;;;;;;;;;;11.57;100.00;102279.03;5051540;28;19948;-67
2022/10/07 07:11:37;;;;;;;;;;;;;;;11.59;100.00;102282.63;5053747;28;19931;-67
2022/10/07 07:14:06;;;;;;;;;;;;;;;11.67;100.00;102275.88;5040213;28;20430;-67
2022/10/07 07:16:31;;;;;;;;;;;;;;;11.68;100.00;102272.41;5051726;28;19924;-67
2022/10/07 07:18:58;;;;;;;;;;;;;;;11.72;100.00;102273.38;5052986;28;19916;-67
2022/10/07 07:21:24;;;;;;;;;;;;;;;11.74;100.00;102272.59;5050985;28;20296;-67
2022/10/07 07:23:50;;;;;;;;;;;;;;;11.75;100.00;102263.84;5051943;28;19918;-66
2022/10/07 07:26:17;;;;;;;;;;;;;;;11.82;100.00;102259.69;5051458;28;19970;-67
2022/10/07 07:28:42;;;;;;;;;;;;;;;11.88;100.00;102269.56;5053166;28;19991;-67
2022/10/07 07:31:09;;;;;;;;;;;;;;;11.93;100.00;102265.34;5053467;28;20376;-67
2022/10/07 07:33:37;;;;;;;;;;;;;;;12.01;100.00;102269.16;5053324;28;19923;-67
2022/10/07 07:36:07;;;;;;;;;;;;;;;12.02;100.00;102263.03;5053011;28;19916;-68
2022/10/07 07:38:32;;;;;;;;;;;;;;;12.07;100.00;102261.47;5052558;28;20327;-68
2022/10/07 07:41:03;;;;;;;;;;;;;;;12.14;100.00;102260.81;5052481;28;19923;-68
2022/10/07 07:43:28;;;;;;;;;;;;;;;12.20;100.00;102252.19;5053303;28;20329;-68
2022/10/07 07:45:56;;;;;;;;;;;;;;;12.33;100.00;102258.78;5049121;28;19920;-67
2022/10/07 07:48:21;;;;;;;;;;;;;;;12.43;100.00;102259.97;5050546;28;19947;-68
2022/10/07 07:50:47;;;;;;;;;;;;;;;12.58;100.00;102256.91;5051885;28;19916;-66
2022/10/07 07:53:12;;;;;;;;;;;;;;;12.72;100.00;102260.84;5052147;28;20394;-67
2022/10/07 07:55:37;;;;;;;;;;;;;;;12.79;100.00;102262.84;5052626;28;19931;-67
2022/10/07 07:58:02;;;;;;;;;;;;;;;12.88;100.00;102253.41;5051907;28;19923;-67
2022/10/07 08:00:27;;;;;;;;;;;;;;;13.02;100.00;102252.03;5050087;28;19916;-68
2022/10/07 08:02:53;;;;;;;;;;;;;;;13.15;100.00;102253.31;5049680;28;19916;-67
2022/10/07 08:05:19;;;;;;;;;;;;;;;13.28;100.00;102260.75;5049902;28;20007;-68
2022/10/07 08:07:44;;;;;;;;;;;;;;;13.42;100.00;102247.94;5051295;28;20377;-67
2022/10/07 08:10:09;;;;;;;;;;;;;;;13.53;100.00;102249.97;5051849;28;20274;-67
2022/10/07 08:12:34;;;;;;;;;;;;;;;13.64;100.00;102248.50;5050363;28;20407;-67
2022/10/07 08:14:59;;;;;;;;;;;;;;;13.69;100.00;102253.91;5052313;28;19920;-68
2022/10/07 08:17:25;;;;;;;;;;;;;;;13.66;100.00;102245.06;5051240;28;19917;-67
2022/10/07 08:19:50;;;;;;;;;;;;;;;13.63;100.00;102254.66;5051339;28;19916;-68
2022/10/07 08:22:16;;;;;;;;;;;;;;;13.62;100.00;102247.59;5051520;28;20478;-67
2022/10/07 08:24:41;;;;;;;;;;;;;;;13.70;100.00;102245.13;5051701;28;19917;-67
2022/10/07 08:27:07;;;;;;;;;;;;;;;13.68;100.00;102242.44;5050443;28;20287;-67
2022/10/07 08:29:32;;;;;;;;;;;;;;;13.72;100.00;102239.03;5050685;28;20279;-67
2022/10/07 08:31:57;;;;;;;;;;;;;;;13.72;100.00;102243.44;5050941;28;20461;-67
2022/10/07 08:34:22;;;;;;;;;;;;;;;13.75;100.00;102238.22;5050883;28;19916;-68
2022/10/07 08:36:49;;;;;;;;;;;;;;;13.77;100.00;102240.03;5052060;28;19913;-65
2022/10/07 08:39:14;;;;;;;;;;;;;;;13.76;100.00;102232.97;5052062;28;19918;-66
2022/10/07 08:41:40;;;;;;;;;;;;;;;13.70;100.00;102227.53;5052285;28;19984;-66
2022/10/07 08:44:10;;;;;;;;;;;;;;;13.75;100.00;102224.97;5051683;28;20403;-66
2022/10/07 08:46:37;;;;;;;;;;;;;;;13.78;100.00;102225.97;5052161;28;20419;-66
2022/10/07 08:49:15;;;;;;;;;;;;;;;13.79;100.00;102221.56;5051819;28;20356;-66
2022/10/07 08:51:45;;;;;;;;;;;;;;;13.82;100.00;102217.25;5051263;28;19920;-66
2022/10/07 08:54:14;;;;;;;;;;;;;;;13.84;100.00;102217.28;5050093;28;20015;-66
2022/10/07 08:56:41;;;;;;;;;;;;;;;13.88;100.00;102215.63;5049167;28;19959;-66
2022/10/07 08:59:20;;;;;;;;;;;;;;;13.91;100.00;102215.69;5051369;28;19924;-66
2022/10/07 09:01:58;;;;;;;;;;;;;;;13.89;100.00;102223.59;5050526;28;19924;-66
2022/10/07 09:04:23;;;;;;;;;;;;;;;13.87;100.00;102219.13;5051910;28;19913;-66
2022/10/07 09:06:54;;;;;;;;;;;;;;;13.98;100.00;102222.91;5051938;28;19913;-66
2022/10/07 09:09:23;;;;;;;;;;;;;;;13.98;100.00;102217.63;5050489;28;19921;-66
2022/10/07 09:11:48;;;;;;;;;;;;;;;14.04;100.00;102217.78;5051768;28;19921;-67
2022/10/07 09:14:36;;;;;;;;;;;;;;;14.07;100.00;102212.56;5051183;28;20020;-66
2022/10/07 09:17:12;;;;;;;;;;;;;;;14.22;100.00;102216.44;5054146;28;20046;-67
2022/10/07 09:19:41;;;;;;;;;;;;;;;14.42;100.00;102215.13;5054406;28;19959;-67
2022/10/07 09:22:20;;;;;;;;;;;;;;;14.69;100.00;102208.72;5055349;28;19917;-67
2022/10/07 09:24:47;;;;;;;;;;;;;;;14.98;100.00;102217.25;5055188;28;20315;-66
2022/10/07 09:27:14;;;;;;;;;;;;;;;15.10;100.00;102215.72;5055401;28;20345;-67
2022/10/07 09:29:40;;;;;;;;;;;;;;;15.10;100.00;102207.78;5054015;28;19952;-66
2022/10/07 09:32:08;;;;;;;;;;;;;;;15.24;100.00;102206.25;5054993;28;19925;-67
2022/10/07 09:34:33;;;;;;;;;;;;;;;15.26;100.00;102208.94;5054253;28;19995;-67
2022/10/07 09:37:13;;;;;;;;;;;;;;;15.24;100.00;102208.03;5055444;28;19955;-68
2022/10/07 09:39:39;;;;;;;;;;;;;;;15.28;100.00;102212.53;5055098;28;19922;-67
2022/10/07 09:42:14;;;;;;;;;;;;;;;15.26;100.00;102204.56;5055650;28;19923;-67
2022/10/07 09:44:39;;;;;;;;;;;;;;;15.41;100.00;102203.94;5055548;28;19913;-67
2022/10/07 09:47:12;;;;;;;;;;;;;;;15.51;100.00;102207.66;5054575;28;20389;-67
2022/10/07 09:49:43;;;;;;;;;;;;;;;15.37;100.00;102195.88;5055003;28;19952;-67
2022/10/07 09:52:12;;;;;;;;;;;;;;;15.34;100.00;102209.97;5055730;28;19959;-68
2022/10/07 09:54:37;;;;;;;;;;;;;;;15.25;100.00;102193.91;5055566;28;19913;-67
2022/10/07 09:57:03;;;;;;;;;;;;;;;15.42;100.00;102186.25;5055515;28;19981;-68
2022/10/07 09:59:30;;;;;;;;;;;;;;;15.35;100.00;102190.56;5037338;28;20004;-67
2022/10/07 10:01:58;;;;;;;;;;;;;;;15.39;100.00;102176.47;5052616;28;19919;-67
2022/10/07 10:04:28;;;;;;;;;;;;;;;15.42;100.00;102176.53;5054312;28;19917;-67
2022/10/07 10:06:57;;;;;;;;;;;;;;;15.46;100.00;102166.88;5053958;28;19919;-67
2022/10/07 10:09:23;;;;;;;;;;;;;;;15.54;100.00;102169.66;5054573;28;19966;-67
2022/10/07 10:12:07;;;;;;;;;;;;;;;15.54;100.00;102164.38;5037056;28;19938;-67
2022/10/07 10:14:52;;;;;;;;;;;;;;;15.52;100.00;102157.25;5036905;28;20385;-67
2022/10/07 10:17:28;;;;;;;;;;;;;;;15.50;100.00;102158.09;5034863;28;19917;-67
2022/10/07 10:19:54;;;;;;;;;;;;;;;15.43;100.00;102154.44;5051563;28;19924;-67
2022/10/07 10:22:25;;;;;;;;;;;;;;;15.35;100.00;102148.13;5052029;28;19917;-68
2022/10/07 10:27:40;;;;;;;;;;;;;;;15.40;100.00;102143.78;5034603;28;19924;-68
2022/10/07 10:30:08;;;;;;;;;;;;;;;15.58;100.00;102151.16;5051732;28;19925;-68
2022/10/07 10:32:43;;;;;;;;;;;;;;;15.69;100.00;102140.72;5053760;28;19963;-67
2022/10/07 10:35:13;;;;;;;;;;;;;;;15.61;100.00;102143.28;5054292;28;19917;-67
2022/10/07 10:37:38;;;;;;;;;;;;;;;15.48;100.00;102139.50;5054170;28;19917;-67
2022/10/07 10:40:07;;;;;;;;;;;;;;;15.50;100.00;102135.13;5053286;28;20475;-68
2022/10/07 10:42:51;;;;;;;;;;;;;;;15.50;100.00;102145.75;5054298;28;19919;-68
2022/10/07 10:45:19;;;;;;;;;;;;;;;15.60;100.00;102130.88;5054103;28;19951;-68
2022/10/07 10:47:53;;;;;;;;;;;;;;;15.65;100.00;102131.84;5054051;28;19912;-68
2022/10/07 10:50:22;;;;;;;;;;;;;;;15.94;100.00;102127.88;5035874;28;19920;-67
2022/10/07 10:52:58;;;;;;;;;;;;;;;15.98;100.00;102125.31;5054226;28;20003;-68
2022/10/07 10:55:34;;;;;;;;;;;;;;;16.07;100.00;102121.00;5054037;28;19913;-68
2022/10/07 10:58:05;;;;;;;;;;;;;;;16.13;100.00;102114.00;5052759;28;19917;-66
2022/10/07 11:00:36;;;;;;;;;;;;;;;16.22;100.00;102109.69;5052094;28;19921;-65
2022/10/07 11:03:23;;;;;;;;;;;;;;;16.27;100.00;102100.03;5051039;28;19921;-67
2022/10/07 11:05:49;;;;;;;;;;;;;;;16.35;100.00;102103.66;5051388;28;19924;-67
2022/10/07 11:08:24;;;;;;;;;;;;;;;16.39;100.00;102094.88;5049640;28;19974;-67
2022/10/07 11:10:53;;;;;;;;;;;;;;;16.26;100.00;102098.22;5051867;28;20011;-68
2022/10/07 11:13:23;;;;;;;;;;;;;;;16.22;100.00;102101.72;5052794;28;20272;-68
2022/10/07 11:15:52;;;;;;;;;;;;;;;16.18;100.00;102101.69;5052970;28;19913;-65
2022/10/07 11:18:28;;;;;;;;;;;;;;;16.02;100.00;102094.38;5052269;28;19916;-67
2022/10/07 11:20:55;;;;;;;;;;;;;;;15.85;100.00;102102.97;5053201;28;19912;-68
2022/10/07 11:23:40;;;;;;;;;;;;;;;15.78;100.00;102095.75;5052802;28;19913;-68
2022/10/07 11:26:36;;;;;;;;;;;;;;;15.73;100.00;102097.44;5034490;28;19923;-68
2022/10/07 11:29:08;;;;;;;;;;;;;;;15.74;100.00;102093.06;5039687;28;19924;-68
2022/10/07 11:31:35;;;;;;;;;;;;;;;15.84;100.00;102087.94;5050661;28;21165;-67
2022/10/07 11:34:06;;;;;;;;;;;;;;;15.82;100.00;102081.69;5053060;28;20430;-67
2022/10/07 11:36:35;;;;;;;;;;;;;;;15.64;100.00;102082.28;5052299;28;19947;-66
2022/10/07 11:39:00;;;;;;;;;;;;;;;15.55;100.00;102081.25;5051843;28;20344;-67
2022/10/07 11:41:28;;;;;;;;;;;;;;;15.54;100.00;102084.78;5052021;28;20033;-66
2022/10/07 11:43:57;;;;;;;;;;;;;;;15.56;100.00;102068.00;5052309;28;19999;-67
2022/10/07 11:46:28;;;;;;;;;;;;;;;15.61;100.00;102070.72;5052335;28;19923;-67
2022/10/07 11:49:00;;;;;;;;;;;;;;;15.56;100.00;102067.09;5052214;28;19927;-67
2022/10/07 11:51:44;;;;;;;;;;;;;;;15.54;100.00;102051.16;5052386;28;19963;-67
2022/10/07 11:54:13;;;;;;;;;;;;;;;15.63;100.00;102045.13;5052119;28;19916;-67
2022/10/07 11:56:48;;;;;;;;;;;;;;;15.74;100.00;102042.63;5034171;28;20019;-67
2022/10/07 11:59:32;;;;;;;;;;;;;;;15.99;100.00;102035.91;5052393;28;19917;-66
2022/10/07 12:01:58;;;;;;;;;;;;;;;16.80;100.00;102033.31;5051227;28;20407;-66
2022/10/07 12:04:34;;;;;;;;;;;;;;;17.50;100.00;102037.47;5050128;28;19934;-65
2022/10/07 12:07:18;;;;;;;;;;;;;;;17.56;100.00;102017.13;5050424;28;19963;-66
2022/10/07 12:09:52;;;;;;;;;;;;;;;17.57;100.00;102021.56;5052342;28;20346;-66
2022/10/07 12:12:21;;;;;;;;;;;;;;;16.95;100.00;102010.44;5052271;28;19916;-66
2022/10/07 12:14:56;;;;;;;;;;;;;;;16.92;100.00;102007.75;5052563;28;19917;-66
2022/10/07 12:17:22;;;;;;;;;;;;;;;16.61;100.00;102007.44;5051289;28;19921;-66
2022/10/07 12:20:07;;;;;;;;;;;;;;;16.54;100.00;102000.28;5051684;28;19923;-67
2022/10/07 12:22:33;;;;;;;;;;;;;;;16.46;100.00;101997.53;5050638;28;20000;-66
2022/10/07 12:25:16;;;;;;;;;;;;;;;16.49;100.00;101995.81;5050726;28;20349;-66
2022/10/07 12:27:45;;;;;;;;;;;;;;;16.49;100.00;101994.91;5051870;28;19917;-66
2022/10/07 12:30:30;;;;;;;;;;;;;;;16.32;100.00;101992.06;5051756;28;19931;-66
2022/10/07 12:32:55;;;;;;;;;;;;;;;16.31;100.00;101982.31;5040730;28;19927;-67
2022/10/07 12:35:33;;;;;;;;;;;;;;;16.10;100.00;101982.94;5051553;28;19917;-67
2022/10/07 12:38:18;;;;;;;;;;;;;;;16.03;100.00;101981.97;5050777;28;20137;-66
2022/10/07 12:40:47;;;;;;;;;;;;;;;16.05;100.00;101988.22;5033203;28;19956;-66
2022/10/07 12:43:25;;;;;;;;;;;;;;;15.97;100.00;101980.16;5050380;28;19921;-66
2022/10/07 12:45:51;;;;;;;;;;;;;;;15.99;100.00;101972.19;5047605;28;20368;-67